< < Back
Terminal Aerodrome Forecast


Current Version              Previous Versions:   1  2  3  4  5  6  7  8  9  

Terminal Aerodrome Forecast

084
FTUS42 KILM 251300 CCA
TAFILM
TAF COR
KILM 251318Z 2512/2612 30006KT P6SM SCT250
     FM260000 00000KT P6SM FEW080
     FM261000 31005KT P6SM SCT050=

Latest METAR

327
SAUS70 KWBC 251800 RRA
MTRILM
METAR KILM 251753Z AUTO 00000KT 10SM CLR 23/06 A2994 RMK AO2 SLP138
T02280061 10233 20072 58017


USA.gov is the U.S. government's official web portal to all federal, state and local government web resources and services.